FADY

De Aar Military Airport

De Aar, South Africa
METAR FADY 230645Z 02015G25KT CAVOK 22/13 Q1014
Observed Flight Rules
Feb-23 @ 06:45 UTC (8 hours ago) Visual Flight Rules
Wind Visibility Clouds
20° at 15 knots
 Gusting to 25 knots
10,000+ meters
  • Clear skies
Temperatures Readings
Current 22°C / 72°F
Dewpoint 13°C / 55°F
Humidity 57%
Altimeter 29.94" Hg
Pressure 1014 hPa
Elevation 384
METAR FADY 230645Z 02015G25KT CAVOK 22/13 Q1014
Observed Flight Rules
Feb-23 @ 06:45 UTC
(8 hours ago)
VFR
Wind Visibility
20° at 15 knots
 Gusting to 25 knots
10,000+ meters
Clouds
  • Clear skies
Temperature Dewpoint
22°C / 72°F 13°C / 55°F
Humidity Altimeter Pressure
57% 29.94" Hg 1014 hPa